sensor_id;sensor_type;location;lat;lon;timestamp;temperature;humidity
23207;DHT22;11773;52.570;13.052;2023-03-07T00:01:40;1.90;99.90
23207;DHT22;11773;52.570;13.052;2023-03-07T00:04:09;2.00;99.90
23207;DHT22;11773;52.570;13.052;2023-03-07T00:06:39;1.90;99.90
23207;DHT22;11773;52.570;13.052;2023-03-07T00:09:08;1.80;99.90
23207;DHT22;11773;52.570;13.052;2023-03-07T00:11:39;1.80;99.90
23207;DHT22;11773;52.570;13.052;2023-03-07T00:14:08;1.80;99.90
23207;DHT22;11773;52.570;13.052;2023-03-07T00:16:38;1.70;99.90
23207;DHT22;11773;52.570;13.052;2023-03-07T00:19:07;1.80;99.90
23207;DHT22;11773;52.570;13.052;2023-03-07T00:21:37;1.80;99.90
23207;DHT22;11773;52.570;13.052;2023-03-07T00:24:08;1.80;99.90
23207;DHT22;11773;52.570;13.052;2023-03-07T00:26:38;1.80;99.90
23207;DHT22;11773;52.570;13.052;2023-03-07T00:29:08;1.90;99.90
23207;DHT22;11773;52.570;13.052;2023-03-07T00:31:38;1.80;99.90
23207;DHT22;11773;52.570;13.052;2023-03-07T00:34:07;1.80;99.90
23207;DHT22;11773;52.570;13.052;2023-03-07T00:36:37;1.80;99.90
23207;DHT22;11773;52.570;13.052;2023-03-07T00:39:06;1.70;99.90
23207;DHT22;11773;52.570;13.052;2023-03-07T00:41:36;1.70;99.90
23207;DHT22;11773;52.570;13.052;2023-03-07T00:44:05;1.70;99.90
23207;DHT22;11773;52.570;13.052;2023-03-07T00:46:35;1.70;99.90
23207;DHT22;11773;52.570;13.052;2023-03-07T00:49:04;1.80;99.90
23207;DHT22;11773;52.570;13.052;2023-03-07T00:51:34;1.70;99.90
23207;DHT22;11773;52.570;13.052;2023-03-07T00:54:03;1.80;99.90
23207;DHT22;11773;52.570;13.052;2023-03-07T00:56:32;1.80;99.90
23207;DHT22;11773;52.570;13.052;2023-03-07T00:59:02;1.90;99.90
23207;DHT22;11773;52.570;13.052;2023-03-07T01:01:31;1.90;99.90
23207;DHT22;11773;52.570;13.052;2023-03-07T01:04:01;1.90;99.90
23207;DHT22;11773;52.570;13.052;2023-03-07T01:06:32;1.90;99.90
23207;DHT22;11773;52.570;13.052;2023-03-07T01:09:05;1.80;99.90
23207;DHT22;11773;52.570;13.052;2023-03-07T01:11:36;1.90;99.90
23207;DHT22;11773;52.570;13.052;2023-03-07T01:14:05;2.00;99.90
23207;DHT22;11773;52.570;13.052;2023-03-07T01:16:36;1.90;99.90
23207;DHT22;11773;52.570;13.052;2023-03-07T01:19:08;1.90;99.90
23207;DHT22;11773;52.570;13.052;2023-03-07T01:21:42;1.90;99.90
23207;DHT22;11773;52.570;13.052;2023-03-07T01:24:13;1.90;99.90
23207;DHT22;11773;52.570;13.052;2023-03-07T01:26:44;2.00;99.90
23207;DHT22;11773;52.570;13.052;2023-03-07T01:29:14;1.90;99.90
23207;DHT22;11773;52.570;13.052;2023-03-07T01:31:44;1.80;99.90
23207;DHT22;11773;52.570;13.052;2023-03-07T01:34:13;1.90;99.90
23207;DHT22;11773;52.570;13.052;2023-03-07T01:36:43;1.70;99.90
23207;DHT22;11773;52.570;13.052;2023-03-07T01:39:14;1.80;99.90
23207;DHT22;11773;52.570;13.052;2023-03-07T01:41:45;1.90;99.90
23207;DHT22;11773;52.570;13.052;2023-03-07T01:44:22;2.00;99.90
23207;DHT22;11773;52.570;13.052;2023-03-07T01:46:54;2.00;99.90
23207;DHT22;11773;52.570;13.052;2023-03-07T01:49:29;2.00;99.90
23207;DHT22;11773;52.570;13.052;2023-03-07T01:52:32;1.80;99.90
23207;DHT22;11773;52.570;13.052;2023-03-07T01:55:15;2.00;99.90
23207;DHT22;11773;52.570;13.052;2023-03-07T01:57:56;1.80;99.90
23207;DHT22;11773;52.570;13.052;2023-03-07T02:00:28;1.90;99.90
23207;DHT22;11773;52.570;13.052;2023-03-07T02:05:58;1.90;99.90
23207;DHT22;11773;52.570;13.052;2023-03-07T02:08:25;2.00;99.90
23207;DHT22;11773;52.570;13.052;2023-03-07T02:10:57;1.90;99.90
23207;DHT22;11773;52.570;13.052;2023-03-07T02:13:26;1.90;99.90
23207;DHT22;11773;52.570;13.052;2023-03-07T02:15:57;1.90;99.90
23207;DHT22;11773;52.570;13.052;2023-03-07T02:18:31;2.00;99.90
23207;DHT22;11773;52.570;13.052;2023-03-07T02:21:25;2.00;99.90
23207;DHT22;11773;52.570;13.052;2023-03-07T02:26:44;2.00;99.90
23207;DHT22;11773;52.570;13.052;2023-03-07T02:29:20;2.00;99.90
23207;DHT22;11773;52.570;13.052;2023-03-07T02:31:50;2.00;99.90
23207;DHT22;11773;52.570;13.052;2023-03-07T02:34:21;2.10;99.90
23207;DHT22;11773;52.570;13.052;2023-03-07T02:37:05;2.00;99.90
23207;DHT22;11773;52.570;13.052;2023-03-07T02:39:32;2.00;99.90
23207;DHT22;11773;52.570;13.052;2023-03-07T02:42:07;2.10;99.90
23207;DHT22;11773;52.570;13.052;2023-03-07T02:44:38;2.10;99.90
23207;DHT22;11773;52.570;13.052;2023-03-07T02:47:08;2.10;99.90
23207;DHT22;11773;52.570;13.052;2023-03-07T02:49:37;2.00;99.90
23207;DHT22;11773;52.570;13.052;2023-03-07T02:52:06;2.10;99.90
23207;DHT22;11773;52.570;13.052;2023-03-07T02:54:37;2.10;99.90
23207;DHT22;11773;52.570;13.052;2023-03-07T02:57:06;2.10;99.90
23207;DHT22;11773;52.570;13.052;2023-03-07T02:59:37;2.10;99.90
23207;DHT22;11773;52.570;13.052;2023-03-07T03:02:06;2.20;99.90
23207;DHT22;11773;52.570;13.052;2023-03-07T03:04:36;2.10;99.90
23207;DHT22;11773;52.570;13.052;2023-03-07T03:07:05;2.20;99.90
23207;DHT22;11773;52.570;13.052;2023-03-07T03:09:35;2.10;99.90
23207;DHT22;11773;52.570;13.052;2023-03-07T03:12:05;2.20;99.90
23207;DHT22;11773;52.570;13.052;2023-03-07T03:14:34;2.10;99.90
23207;DHT22;11773;52.570;13.052;2023-03-07T03:17:04;2.20;99.90
23207;DHT22;11773;52.570;13.052;2023-03-07T03:19:34;2.30;99.90
23207;DHT22;11773;52.570;13.052;2023-03-07T03:22:03;2.20;99.90
23207;DHT22;11773;52.570;13.052;2023-03-07T03:24:36;2.30;99.90
23207;DHT22;11773;52.570;13.052;2023-03-07T03:27:08;2.30;99.90
23207;DHT22;11773;52.570;13.052;2023-03-07T03:29:37;2.40;99.90
23207;DHT22;11773;52.570;13.052;2023-03-07T03:32:07;2.30;99.90
23207;DHT22;11773;52.570;13.052;2023-03-07T03:34:36;2.40;99.90
23207;DHT22;11773;52.570;13.052;2023-03-07T03:37:06;2.40;99.90
23207;DHT22;11773;52.570;13.052;2023-03-07T03:39:35;2.40;99.90
23207;DHT22;11773;52.570;13.052;2023-03-07T03:42:05;2.40;99.90
23207;DHT22;11773;52.570;13.052;2023-03-07T03:44:34;2.30;99.90
23207;DHT22;11773;52.570;13.052;2023-03-07T03:47:04;2.40;99.90
23207;DHT22;11773;52.570;13.052;2023-03-07T03:49:33;2.50;99.90
23207;DHT22;11773;52.570;13.052;2023-03-07T03:52:03;2.50;99.90
23207;DHT22;11773;52.570;13.052;2023-03-07T03:54:33;2.50;99.90
23207;DHT22;11773;52.570;13.052;2023-03-07T03:57:02;2.60;99.90
23207;DHT22;11773;52.570;13.052;2023-03-07T03:59:32;2.50;99.90
23207;DHT22;11773;52.570;13.052;2023-03-07T04:02:01;2.70;99.90
23207;DHT22;11773;52.570;13.052;2023-03-07T04:04:31;2.60;99.90
23207;DHT22;11773;52.570;13.052;2023-03-07T04:07:00;2.70;99.90
23207;DHT22;11773;52.570;13.052;2023-03-07T04:09:31;2.80;99.90
23207;DHT22;11773;52.570;13.052;2023-03-07T04:12:01;2.80;99.90
23207;DHT22;11773;52.570;13.052;2023-03-07T04:14:31;2.80;99.90
23207;DHT22;11773;52.570;13.052;2023-03-07T04:17:00;2.70;99.90
23207;DHT22;11773;52.570;13.052;2023-03-07T04:19:30;2.60;99.90
23207;DHT22;11773;52.570;13.052;2023-03-07T04:21:59;2.80;99.90
23207;DHT22;11773;52.570;13.052;2023-03-07T04:24:28;2.80;99.90
23207;DHT22;11773;52.570;13.052;2023-03-07T04:26:58;2.90;99.90
23207;DHT22;11773;52.570;13.052;2023-03-07T04:29:27;2.70;99.90
23207;DHT22;11773;52.570;13.052;2023-03-07T04:31:57;2.70;99.90
23207;DHT22;11773;52.570;13.052;2023-03-07T04:34:27;2.80;99.90
23207;DHT22;11773;52.570;13.052;2023-03-07T04:36:56;2.80;99.90
23207;DHT22;11773;52.570;13.052;2023-03-07T04:39:26;2.80;99.90
23207;DHT22;11773;52.570;13.052;2023-03-07T04:41:55;2.70;99.90
23207;DHT22;11773;52.570;13.052;2023-03-07T04:44:25;2.80;99.90
23207;DHT22;11773;52.570;13.052;2023-03-07T04:46:54;2.80;99.90
23207;DHT22;11773;52.570;13.052;2023-03-07T04:49:24;2.80;99.90
23207;DHT22;11773;52.570;13.052;2023-03-07T04:51:53;2.90;99.90
23207;DHT22;11773;52.570;13.052;2023-03-07T04:54:22;2.90;99.90
23207;DHT22;11773;52.570;13.052;2023-03-07T04:56:52;2.80;99.90
23207;DHT22;11773;52.570;13.052;2023-03-07T04:59:21;2.80;99.90
23207;DHT22;11773;52.570;13.052;2023-03-07T05:01:51;2.80;99.90
23207;DHT22;11773;52.570;13.052;2023-03-07T05:04:20;3.00;99.90
23207;DHT22;11773;52.570;13.052;2023-03-07T05:06:50;2.80;99.90
23207;DHT22;11773;52.570;13.052;2023-03-07T05:09:19;2.80;99.90
23207;DHT22;11773;52.570;13.052;2023-03-07T05:11:49;3.00;99.90
23207;DHT22;11773;52.570;13.052;2023-03-07T05:14:20;2.90;99.90
23207;DHT22;11773;52.570;13.052;2023-03-07T05:16:50;2.70;99.90
23207;DHT22;11773;52.570;13.052;2023-03-07T05:19:19;2.80;99.90
23207;DHT22;11773;52.570;13.052;2023-03-07T05:21:49;2.90;99.90
23207;DHT22;11773;52.570;13.052;2023-03-07T05:24:18;2.80;99.90
23207;DHT22;11773;52.570;13.052;2023-03-07T05:26:48;2.80;99.90
23207;DHT22;11773;52.570;13.052;2023-03-07T05:29:17;2.90;99.90
23207;DHT22;11773;52.570;13.052;2023-03-07T05:31:47;2.90;99.90
23207;DHT22;11773;52.570;13.052;2023-03-07T05:34:16;2.80;99.90
23207;DHT22;11773;52.570;13.052;2023-03-07T05:36:45;2.90;99.90
23207;DHT22;11773;52.570;13.052;2023-03-07T05:39:15;3.00;99.90
23207;DHT22;11773;52.570;13.052;2023-03-07T05:41:44;3.00;99.90
23207;DHT22;11773;52.570;13.052;2023-03-07T05:44:14;3.00;99.90
23207;DHT22;11773;52.570;13.052;2023-03-07T05:46:43;3.00;99.90
23207;DHT22;11773;52.570;13.052;2023-03-07T05:49:13;3.00;99.90
23207;DHT22;11773;52.570;13.052;2023-03-07T05:51:42;3.10;99.90
23207;DHT22;11773;52.570;13.052;2023-03-07T05:54:11;3.10;99.90
23207;DHT22;11773;52.570;13.052;2023-03-07T05:56:41;3.10;99.90
23207;DHT22;11773;52.570;13.052;2023-03-07T05:59:10;3.00;99.90
23207;DHT22;11773;52.570;13.052;2023-03-07T06:01:42;3.10;99.90
23207;DHT22;11773;52.570;13.052;2023-03-07T06:04:11;3.10;99.90
23207;DHT22;11773;52.570;13.052;2023-03-07T06:06:41;3.10;99.90
23207;DHT22;11773;52.570;13.052;2023-03-07T06:09:10;3.20;99.90
23207;DHT22;11773;52.570;13.052;2023-03-07T06:11:39;3.30;99.90
23207;DHT22;11773;52.570;13.052;2023-03-07T06:14:09;3.20;99.90
23207;DHT22;11773;52.570;13.052;2023-03-07T06:16:38;3.40;99.90
23207;DHT22;11773;52.570;13.052;2023-03-07T06:19:08;3.40;99.90
23207;DHT22;11773;52.570;13.052;2023-03-07T06:21:37;3.30;99.90
23207;DHT22;11773;52.570;13.052;2023-03-07T06:24:07;3.40;99.90
23207;DHT22;11773;52.570;13.052;2023-03-07T06:26:36;3.20;99.90
23207;DHT22;11773;52.570;13.052;2023-03-07T06:29:06;3.40;99.90
23207;DHT22;11773;52.570;13.052;2023-03-07T06:31:36;3.40;99.90
23207;DHT22;11773;52.570;13.052;2023-03-07T06:34:05;3.30;99.90
23207;DHT22;11773;52.570;13.052;2023-03-07T06:36:35;3.40;99.90
23207;DHT22;11773;52.570;13.052;2023-03-07T06:39:04;3.50;99.90
23207;DHT22;11773;52.570;13.052;2023-03-07T06:41:34;3.50;99.90
23207;DHT22;11773;52.570;13.052;2023-03-07T06:44:03;3.50;99.90
23207;DHT22;11773;52.570;13.052;2023-03-07T06:46:33;3.60;99.90
23207;DHT22;11773;52.570;13.052;2023-03-07T06:49:02;3.50;99.90
23207;DHT22;11773;52.570;13.052;2023-03-07T06:51:32;3.40;99.90
23207;DHT22;11773;52.570;13.052;2023-03-07T06:54:03;3.50;99.90
23207;DHT22;11773;52.570;13.052;2023-03-07T06:56:32;3.50;99.90
23207;DHT22;11773;52.570;13.052;2023-03-07T06:59:02;3.60;99.90
23207;DHT22;11773;52.570;13.052;2023-03-07T07:01:32;3.60;99.90
23207;DHT22;11773;52.570;13.052;2023-03-07T07:04:02;3.60;99.90
23207;DHT22;11773;52.570;13.052;2023-03-07T07:06:32;3.70;99.90
23207;DHT22;11773;52.570;13.052;2023-03-07T07:09:02;3.60;99.90
23207;DHT22;11773;52.570;13.052;2023-03-07T07:11:32;3.70;99.90
23207;DHT22;11773;52.570;13.052;2023-03-07T07:14:01;3.80;99.90
23207;DHT22;11773;52.570;13.052;2023-03-07T07:16:31;3.80;99.90
23207;DHT22;11773;52.570;13.052;2023-03-07T07:19:03;3.90;99.90
23207;DHT22;11773;52.570;13.052;2023-03-07T07:21:32;3.80;99.90
23207;DHT22;11773;52.570;13.052;2023-03-07T07:24:02;3.70;99.90
23207;DHT22;11773;52.570;13.052;2023-03-07T07:26:31;4.00;99.90
23207;DHT22;11773;52.570;13.052;2023-03-07T07:29:01;3.90;99.90
23207;DHT22;11773;52.570;13.052;2023-03-07T07:31:30;3.90;99.90
23207;DHT22;11773;52.570;13.052;2023-03-07T07:34:00;3.90;99.90
23207;DHT22;11773;52.570;13.052;2023-03-07T07:36:29;4.00;99.90
23207;DHT22;11773;52.570;13.052;2023-03-07T07:39:04;4.00;99.90
23207;DHT22;11773;52.570;13.052;2023-03-07T07:41:34;4.10;99.90
23207;DHT22;11773;52.570;13.052;2023-03-07T07:44:03;4.00;99.90
23207;DHT22;11773;52.570;13.052;2023-03-07T07:46:33;4.10;99.90
23207;DHT22;11773;52.570;13.052;2023-03-07T07:49:03;4.10;99.90
23207;DHT22;11773;52.570;13.052;2023-03-07T07:51:32;4.10;99.90
23207;DHT22;11773;52.570;13.052;2023-03-07T07:54:01;4.20;99.90
23207;DHT22;11773;52.570;13.052;2023-03-07T07:56:31;4.10;99.90
23207;DHT22;11773;52.570;13.052;2023-03-07T07:59:00;4.20;99.90
23207;DHT22;11773;52.570;13.052;2023-03-07T08:01:30;4.20;99.90
23207;DHT22;11773;52.570;13.052;2023-03-07T08:03:59;4.30;99.90
23207;DHT22;11773;52.570;13.052;2023-03-07T08:06:29;4.40;99.90
23207;DHT22;11773;52.570;13.052;2023-03-07T08:08:58;4.40;99.90
23207;DHT22;11773;52.570;13.052;2023-03-07T08:11:28;4.30;99.90
23207;DHT22;11773;52.570;13.052;2023-03-07T08:13:57;4.30;99.90
23207;DHT22;11773;52.570;13.052;2023-03-07T08:16:27;4.30;99.90
23207;DHT22;11773;52.570;13.052;2023-03-07T08:18:57;4.40;99.90
23207;DHT22;11773;52.570;13.052;2023-03-07T08:21:28;4.20;99.90
23207;DHT22;11773;52.570;13.052;2023-03-07T08:23:58;4.40;99.90
23207;DHT22;11773;52.570;13.052;2023-03-07T08:26:27;4.30;99.90
23207;DHT22;11773;52.570;13.052;2023-03-07T08:28:57;4.40;99.90
23207;DHT22;11773;52.570;13.052;2023-03-07T08:31:26;4.50;99.90
23207;DHT22;11773;52.570;13.052;2023-03-07T08:33:56;4.50;99.90
23207;DHT22;11773;52.570;13.052;2023-03-07T08:36:25;4.60;99.90
23207;DHT22;11773;52.570;13.052;2023-03-07T08:38:55;4.60;99.90
23207;DHT22;11773;52.570;13.052;2023-03-07T08:41:24;4.60;99.90
23207;DHT22;11773;52.570;13.052;2023-03-07T08:43:54;4.60;99.90
23207;DHT22;11773;52.570;13.052;2023-03-07T08:46:23;4.70;99.90
23207;DHT22;11773;52.570;13.052;2023-03-07T08:48:53;4.70;99.90
23207;DHT22;11773;52.570;13.052;2023-03-07T08:51:22;4.80;99.90
23207;DHT22;11773;52.570;13.052;2023-03-07T08:53:52;4.80;99.90
23207;DHT22;11773;52.570;13.052;2023-03-07T08:56:21;4.80;99.90
23207;DHT22;11773;52.570;13.052;2023-03-07T08:58:54;4.90;99.90
23207;DHT22;11773;52.570;13.052;2023-03-07T09:01:23;4.80;99.90
23207;DHT22;11773;52.570;13.052;2023-03-07T09:03:53;4.90;99.90
23207;DHT22;11773;52.570;13.052;2023-03-07T09:06:22;4.90;99.90
23207;DHT22;11773;52.570;13.052;2023-03-07T09:08:51;5.00;99.90
23207;DHT22;11773;52.570;13.052;2023-03-07T09:11:21;5.10;99.90
23207;DHT22;11773;52.570;13.052;2023-03-07T09:13:50;5.10;99.90
23207;DHT22;11773;52.570;13.052;2023-03-07T09:16:20;5.20;99.90
23207;DHT22;11773;52.570;13.052;2023-03-07T09:18:50;5.30;99.90
23207;DHT22;11773;52.570;13.052;2023-03-07T09:21:20;5.40;99.90
23207;DHT22;11773;52.570;13.052;2023-03-07T09:23:50;5.40;99.90
23207;DHT22;11773;52.570;13.052;2023-03-07T09:26:19;5.40;99.90
23207;DHT22;11773;52.570;13.052;2023-03-07T09:28:48;5.50;99.90
23207;DHT22;11773;52.570;13.052;2023-03-07T09:31:18;5.50;99.90
23207;DHT22;11773;52.570;13.052;2023-03-07T09:33:47;5.30;99.90
23207;DHT22;11773;52.570;13.052;2023-03-07T09:39:07;5.30;99.90
23207;DHT22;11773;52.570;13.052;2023-03-07T09:41:51;5.40;99.90
23207;DHT22;11773;52.570;13.052;2023-03-07T09:47:30;5.50;99.90
23207;DHT22;11773;52.570;13.052;2023-03-07T09:50:01;5.70;99.90
23207;DHT22;11773;52.570;13.052;2023-03-07T09:52:34;5.80;99.90
23207;DHT22;11773;52.570;13.052;2023-03-07T09:55:16;5.70;99.90
23207;DHT22;11773;52.570;13.052;2023-03-07T09:57:49;6.00;99.90
23207;DHT22;11773;52.570;13.052;2023-03-07T10:00:29;6.10;99.90
23207;DHT22;11773;52.570;13.052;2023-03-07T10:03:24;6.20;99.90
23207;DHT22;11773;52.570;13.052;2023-03-07T10:05:58;6.30;99.90
23207;DHT22;11773;52.570;13.052;2023-03-07T10:08:31;6.30;99.90
23207;DHT22;11773;52.570;13.052;2023-03-07T10:14:12;6.40;99.90
23207;DHT22;11773;52.570;13.052;2023-03-07T10:17:06;6.40;99.90
23207;DHT22;11773;52.570;13.052;2023-03-07T10:19:41;6.40;99.90
23207;DHT22;11773;52.570;13.052;2023-03-07T10:25:30;6.50;99.90
23207;DHT22;11773;52.570;13.052;2023-03-07T10:28:15;6.50;99.90
23207;DHT22;11773;52.570;13.052;2023-03-07T10:33:48;6.40;99.90
23207;DHT22;11773;52.570;13.052;2023-03-07T10:39:27;6.40;99.90
23207;DHT22;11773;52.570;13.052;2023-03-07T10:42:12;6.40;99.90
23207;DHT22;11773;52.570;13.052;2023-03-07T10:44:43;6.30;99.90
23207;DHT22;11773;52.570;13.052;2023-03-07T10:47:23;6.50;99.90
23207;DHT22;11773;52.570;13.052;2023-03-07T10:50:06;6.70;99.90
23207;DHT22;11773;52.570;13.052;2023-03-07T10:52:39;6.60;99.90
23207;DHT22;11773;52.570;13.052;2023-03-07T10:55:37;6.60;99.90
23207;DHT22;11773;52.570;13.052;2023-03-07T10:58:27;6.70;99.90
23207;DHT22;11773;52.570;13.052;2023-03-07T11:00:59;6.90;99.90
23207;DHT22;11773;52.570;13.052;2023-03-07T11:03:59;7.00;99.90
23207;DHT22;11773;52.570;13.052;2023-03-07T11:06:40;7.00;99.90
23207;DHT22;11773;52.570;13.052;2023-03-07T11:09:17;7.20;99.90
23207;DHT22;11773;52.570;13.052;2023-03-07T11:12:12;7.00;99.90
23207;DHT22;11773;52.570;13.052;2023-03-07T11:14:55;7.10;99.90
23207;DHT22;11773;52.570;13.052;2023-03-07T11:17:46;7.10;99.90
23207;DHT22;11773;52.570;13.052;2023-03-07T11:20:22;7.10;99.90
23207;DHT22;11773;52.570;13.052;2023-03-07T11:23:18;7.00;99.90
23207;DHT22;11773;52.570;13.052;2023-03-07T11:25:54;7.00;99.90
23207;DHT22;11773;52.570;13.052;2023-03-07T11:28:31;6.90;99.90
23207;DHT22;11773;52.570;13.052;2023-03-07T11:31:28;6.90;99.90
23207;DHT22;11773;52.570;13.052;2023-03-07T11:34:21;6.90;99.90
23207;DHT22;11773;52.570;13.052;2023-03-07T11:37:00;7.00;99.90
23207;DHT22;11773;52.570;13.052;2023-03-07T11:40:01;6.80;99.90
23207;DHT22;11773;52.570;13.052;2023-03-07T11:42:39;6.50;99.90
23207;DHT22;11773;52.570;13.052;2023-03-07T11:50:53;6.60;99.90
23207;DHT22;11773;52.570;13.052;2023-03-07T11:53:33;6.70;99.90
23207;DHT22;11773;52.570;13.052;2023-03-07T11:56:31;6.60;99.90
23207;DHT22;11773;52.570;13.052;2023-03-07T11:59:25;6.70;99.90
23207;DHT22;11773;52.570;13.052;2023-03-07T12:05:35;6.20;99.90
23207;DHT22;11773;52.570;13.052;2023-03-07T12:11:31;6.40;99.90
23207;DHT22;11773;52.570;13.052;2023-03-07T12:14:21;6.30;99.90
23207;DHT22;11773;52.570;13.052;2023-03-07T12:17:08;6.20;99.90
23207;DHT22;11773;52.570;13.052;2023-03-07T12:20:00;6.10;99.90
23207;DHT22;11773;52.570;13.052;2023-03-07T12:22:36;6.00;99.90
23207;DHT22;11773;52.570;13.052;2023-03-07T12:25:54;6.00;99.90
23207;DHT22;11773;52.570;13.052;2023-03-07T12:28:19;5.90;99.90
23207;DHT22;11773;52.570;13.052;2023-03-07T12:31:07;6.00;99.90
23207;DHT22;11773;52.570;13.052;2023-03-07T12:34:00;6.00;99.90
23207;DHT22;11773;52.570;13.052;2023-03-07T12:36:49;5.90;99.90
23207;DHT22;11773;52.570;13.052;2023-03-07T12:39:27;5.80;99.90
23207;DHT22;11773;52.570;13.052;2023-03-07T12:42:29;5.90;99.90
23207;DHT22;11773;52.570;13.052;2023-03-07T12:51:10;5.80;99.90
23207;DHT22;11773;52.570;13.052;2023-03-07T12:53:46;5.50;99.90
23207;DHT22;11773;52.570;13.052;2023-03-07T12:56:39;5.70;99.90
23207;DHT22;11773;52.570;13.052;2023-03-07T12:59:14;5.90;99.90
23207;DHT22;11773;52.570;13.052;2023-03-07T13:01:53;5.80;99.90
23207;DHT22;11773;52.570;13.052;2023-03-07T13:07:23;5.80;99.90
23207;DHT22;11773;52.570;13.052;2023-03-07T13:10:02;5.70;99.90
23207;DHT22;11773;52.570;13.052;2023-03-07T13:12:35;5.70;99.90
23207;DHT22;11773;52.570;13.052;2023-03-07T13:15:09;5.70;99.90
23207;DHT22;11773;52.570;13.052;2023-03-07T13:17:56;5.80;99.90
23207;DHT22;11773;52.570;13.052;2023-03-07T13:20:33;5.60;99.90
23207;DHT22;11773;52.570;13.052;2023-03-07T13:23:20;5.70;99.90
23207;DHT22;11773;52.570;13.052;2023-03-07T13:25:59;5.80;99.90
23207;DHT22;11773;52.570;13.052;2023-03-07T13:28:38;5.70;99.90
23207;DHT22;11773;52.570;13.052;2023-03-07T13:31:36;5.80;99.90
23207;DHT22;11773;52.570;13.052;2023-03-07T13:34:58;5.60;99.90
23207;DHT22;11773;52.570;13.052;2023-03-07T13:37:47;5.70;99.90
23207;DHT22;11773;52.570;13.052;2023-03-07T13:45:58;5.90;99.90
23207;DHT22;11773;52.570;13.052;2023-03-07T13:51:06;5.90;99.90
23207;DHT22;11773;52.570;13.052;2023-03-07T13:53:48;5.80;99.90
23207;DHT22;11773;52.570;13.052;2023-03-07T13:56:24;5.90;99.90
23207;DHT22;11773;52.570;13.052;2023-03-07T13:58:58;6.00;99.90
23207;DHT22;11773;52.570;13.052;2023-03-07T14:01:56;5.90;99.90
23207;DHT22;11773;52.570;13.052;2023-03-07T14:04:29;5.70;99.90
23207;DHT22;11773;52.570;13.052;2023-03-07T14:07:10;5.70;99.90
23207;DHT22;11773;52.570;13.052;2023-03-07T14:09:47;5.70;99.90
23207;DHT22;11773;52.570;13.052;2023-03-07T14:27:13;5.90;99.90
23207;DHT22;11773;52.570;13.052;2023-03-07T14:29:48;5.80;99.90
23207;DHT22;11773;52.570;13.052;2023-03-07T14:32:30;5.90;99.90
23207;DHT22;11773;52.570;13.052;2023-03-07T14:35:03;5.80;99.90
23207;DHT22;11773;52.570;13.052;2023-03-07T14:37:33;5.70;99.90
23207;DHT22;11773;52.570;13.052;2023-03-07T14:40:11;5.90;99.90
23207;DHT22;11773;52.570;13.052;2023-03-07T14:43:52;5.90;99.90
23207;DHT22;11773;52.570;13.052;2023-03-07T14:48:59;5.70;99.90
23207;DHT22;11773;52.570;13.052;2023-03-07T14:51:51;5.70;99.90
23207;DHT22;11773;52.570;13.052;2023-03-07T14:54:24;5.90;99.90
23207;DHT22;11773;52.570;13.052;2023-03-07T14:56:56;5.70;99.90
23207;DHT22;11773;52.570;13.052;2023-03-07T14:59:27;5.80;99.90
23207;DHT22;11773;52.570;13.052;2023-03-07T15:01:57;5.90;99.90
23207;DHT22;11773;52.570;13.052;2023-03-07T15:04:29;6.00;99.90
23207;DHT22;11773;52.570;13.052;2023-03-07T15:07:04;6.20;99.90
23207;DHT22;11773;52.570;13.052;2023-03-07T15:09:35;6.10;99.90
23207;DHT22;11773;52.570;13.052;2023-03-07T15:12:17;6.00;99.90
23207;DHT22;11773;52.570;13.052;2023-03-07T15:14:58;6.20;99.90
23207;DHT22;11773;52.570;13.052;2023-03-07T15:17:27;6.20;99.90
23207;DHT22;11773;52.570;13.052;2023-03-07T15:20:01;6.10;99.90
23207;DHT22;11773;52.570;13.052;2023-03-07T15:22:36;6.10;99.90
23207;DHT22;11773;52.570;13.052;2023-03-07T15:25:17;6.20;99.90
23207;DHT22;11773;52.570;13.052;2023-03-07T15:27:58;6.20;99.90
23207;DHT22;11773;52.570;13.052;2023-03-07T15:30:35;6.00;99.90
23207;DHT22;11773;52.570;13.052;2023-03-07T15:38:51;6.10;99.90
23207;DHT22;11773;52.570;13.052;2023-03-07T15:41:32;6.00;99.90
23207;DHT22;11773;52.570;13.052;2023-03-07T15:44:17;6.00;99.90
23207;DHT22;11773;52.570;13.052;2023-03-07T15:46:53;6.00;99.90
23207;DHT22;11773;52.570;13.052;2023-03-07T15:49:39;6.10;99.90
23207;DHT22;11773;52.570;13.052;2023-03-07T15:52:31;5.90;99.90
23207;DHT22;11773;52.570;13.052;2023-03-07T15:55:05;6.20;99.90
23207;DHT22;11773;52.570;13.052;2023-03-07T15:58:24;6.20;99.90
23207;DHT22;11773;52.570;13.052;2023-03-07T16:00:28;5.90;99.90
23207;DHT22;11773;52.570;13.052;2023-03-07T16:03:27;6.00;99.90
23207;DHT22;11773;52.570;13.052;2023-03-07T16:05:59;6.00;99.90
23207;DHT22;11773;52.570;13.052;2023-03-07T16:08:29;5.90;99.90
23207;DHT22;11773;52.570;13.052;2023-03-07T16:11:04;5.90;99.90
23207;DHT22;11773;52.570;13.052;2023-03-07T16:13:40;6.00;99.90
23207;DHT22;11773;52.570;13.052;2023-03-07T16:16:15;5.90;99.90
23207;DHT22;11773;52.570;13.052;2023-03-07T16:18:45;6.00;99.90
23207;DHT22;11773;52.570;13.052;2023-03-07T16:21:16;6.00;99.90
23207;DHT22;11773;52.570;13.052;2023-03-07T16:23:46;6.00;99.90
23207;DHT22;11773;52.570;13.052;2023-03-07T16:26:24;5.80;99.90
23207;DHT22;11773;52.570;13.052;2023-03-07T16:28:51;6.00;99.90
23207;DHT22;11773;52.570;13.052;2023-03-07T16:31:21;5.90;99.90
23207;DHT22;11773;52.570;13.052;2023-03-07T16:33:51;5.80;99.90
23207;DHT22;11773;52.570;13.052;2023-03-07T16:36:21;5.90;99.90
23207;DHT22;11773;52.570;13.052;2023-03-07T16:38:50;5.90;99.90
23207;DHT22;11773;52.570;13.052;2023-03-07T16:41:21;5.70;99.90
23207;DHT22;11773;52.570;13.052;2023-03-07T16:43:55;5.70;99.90
23207;DHT22;11773;52.570;13.052;2023-03-07T16:46:27;5.60;99.90
23207;DHT22;11773;52.570;13.052;2023-03-07T16:48:57;5.50;99.90
23207;DHT22;11773;52.570;13.052;2023-03-07T16:51:26;5.50;99.90
23207;DHT22;11773;52.570;13.052;2023-03-07T16:53:57;5.60;99.90
23207;DHT22;11773;52.570;13.052;2023-03-07T16:56:41;5.60;99.90
23207;DHT22;11773;52.570;13.052;2023-03-07T16:59:14;5.60;99.90
23207;DHT22;11773;52.570;13.052;2023-03-07T17:01:47;5.50;99.90
23207;DHT22;11773;52.570;13.052;2023-03-07T17:04:18;5.60;99.90
23207;DHT22;11773;52.570;13.052;2023-03-07T17:06:48;5.60;99.90
23207;DHT22;11773;52.570;13.052;2023-03-07T17:09:19;5.60;99.90
23207;DHT22;11773;52.570;13.052;2023-03-07T17:11:50;5.50;99.90
23207;DHT22;11773;52.570;13.052;2023-03-07T17:14:19;5.70;99.90
23207;DHT22;11773;52.570;13.052;2023-03-07T17:16:49;5.50;99.90
23207;DHT22;11773;52.570;13.052;2023-03-07T17:19:22;5.50;99.90
23207;DHT22;11773;52.570;13.052;2023-03-07T17:21:54;5.50;99.90
23207;DHT22;11773;52.570;13.052;2023-03-07T17:24:26;5.50;99.90
23207;DHT22;11773;52.570;13.052;2023-03-07T17:26:58;5.40;99.90
23207;DHT22;11773;52.570;13.052;2023-03-07T17:29:43;5.40;99.90